Weather at Singapore Changi Airport

Public forecast

Using degrees Celsius for public forecast. Weather courtesy of forecast.io.

Current aviation weather report (METAR) for Singapore Changi Airport

Retrieved 2020/10/20 17:30 UTC (0 seconds ago):

WSSS 201730Z 05003KT 020V090 9999 FEW018 SCT160 BKN300 27/25 Q1010 NOSIG

Aviation forecast (TAF) for Singapore Changi Airport

Retrieved 2020/10/20 12:11 UTC (5 hours ago):

TAF WSSS 201100Z 2012/2118 VRB05KT 9999 FEW015 SCT020 TEMPO 2106/2109 3000 TSRA FEW012CB BKN015